createdAt,value
2017-09-13T00:01:20.154Z,76.90
2017-09-13T00:04:30.244Z,77.10
2017-09-13T00:07:40.740Z,77.20
2017-09-13T00:10:51.228Z,77.00
2017-09-13T00:14:01.453Z,77.10
2017-09-13T00:17:12.169Z,76.90
2017-09-13T00:20:22.249Z,77.00
2017-09-13T00:23:33.272Z,76.60
2017-09-13T00:26:43.450Z,76.60
2017-09-13T00:29:53.967Z,76.70
2017-09-13T00:33:03.793Z,77.00
2017-09-13T00:36:14.741Z,77.40
2017-09-13T00:39:25.437Z,77.30
2017-09-13T00:42:36.288Z,77.60
2017-09-13T00:45:47.105Z,77.30
2017-09-13T00:48:58.104Z,77.60
2017-09-13T00:52:08.384Z,77.80
2017-09-13T00:55:18.471Z,77.80
2017-09-13T00:58:29.317Z,77.90
2017-09-13T01:01:39.467Z,78.20
2017-09-13T01:04:49.677Z,78.60
2017-09-13T01:07:59.685Z,78.80
2017-09-13T01:11:10.533Z,78.50
2017-09-13T01:14:20.907Z,78.40
2017-09-13T01:17:31.333Z,78.10
2017-09-13T01:20:41.491Z,78.00
2017-09-13T01:23:52.239Z,77.60
2017-09-13T01:27:02.325Z,78.00
2017-09-13T01:30:12.151Z,77.60
2017-09-13T01:33:22.315Z,77.30
2017-09-13T01:36:33.256Z,77.60
2017-09-13T01:39:43.756Z,76.80
2017-09-13T01:42:54.659Z,76.80
2017-09-13T01:46:04.824Z,76.90
2017-09-13T01:49:16.124Z,76.80
2017-09-13T01:52:26.622Z,76.80
2017-09-13T01:55:37.643Z,76.80
2017-09-13T01:58:48.529Z,76.80
2017-09-13T02:01:58.709Z,76.80
2017-09-13T02:05:08.933Z,76.60
2017-09-13T02:08:19.763Z,76.90
2017-09-13T02:11:29.845Z,76.80
2017-09-13T02:14:40.856Z,77.00
2017-09-13T02:17:50.987Z,77.20
2017-09-13T02:21:00.991Z,76.90
2017-09-13T02:24:11.487Z,76.90
2017-09-13T02:27:21.892Z,76.70
2017-09-13T02:30:32.928Z,76.10
2017-09-13T02:33:43.290Z,76.10
2017-09-13T02:36:53.370Z,76.30
2017-09-13T02:40:03.860Z,76.40
2017-09-13T02:43:14.128Z,77.10
2017-09-13T02:46:24.914Z,76.60
2017-09-13T02:49:35.927Z,76.20
2017-09-13T02:52:46.762Z,75.90
2017-09-13T02:55:57.813Z,76.00
2017-09-13T02:59:08.623Z,76.00
2017-09-13T03:02:18.671Z,75.90
2017-09-13T03:05:28.570Z,75.80
2017-09-13T03:08:39.359Z,75.80
2017-09-13T03:11:50.483Z,75.70
2017-09-13T03:15:00.847Z,75.70
2017-09-13T03:18:11.061Z,75.60
2017-09-13T03:21:21.289Z,75.50
2017-09-13T03:24:31.956Z,75.20
2017-09-13T03:27:42.081Z,74.80
2017-09-13T03:30:52.083Z,74.80
2017-09-13T03:34:02.450Z,74.70
2017-09-13T03:37:12.729Z,74.80
2017-09-13T03:40:22.858Z,74.70
2017-09-13T03:43:33.552Z,74.70
2017-09-13T03:46:44.330Z,74.70
2017-09-13T03:49:55.129Z,74.90
2017-09-13T03:53:06.022Z,74.60
2017-09-13T03:56:15.986Z,74.60
2017-09-13T03:59:26.017Z,74.70
2017-09-13T04:02:37.053Z,74.70
2017-09-13T04:05:47.678Z,74.10
2017-09-13T04:08:57.743Z,74.30
2017-09-13T04:12:07.818Z,74.40
2017-09-13T04:15:18.084Z,74.70
2017-09-13T04:18:29.017Z,74.60
2017-09-13T04:21:39.236Z,74.30
2017-09-13T04:24:49.221Z,74.30
2017-09-13T04:27:59.087Z,74.10
2017-09-13T04:31:09.474Z,74.00
2017-09-13T04:34:19.370Z,73.90
2017-09-13T04:37:29.799Z,73.90
2017-09-13T04:40:39.821Z,73.70
2017-09-13T04:43:50.028Z,73.80
2017-09-13T04:47:00.147Z,73.40
2017-09-13T04:50:10.385Z,73.30
2017-09-13T04:53:21.987Z,73.60
2017-09-13T04:56:32.713Z,73.50
2017-09-13T04:59:43.922Z,72.50
2017-09-13T05:02:55.578Z,72.70
2017-09-13T05:06:06.159Z,72.80
2017-09-13T05:09:17.049Z,72.20
2017-09-13T05:12:26.916Z,72.00
2017-09-13T05:15:37.079Z,72.00
2017-09-13T05:18:47.843Z,71.30
2017-09-13T05:21:57.899Z,71.30
2017-09-13T05:25:08.505Z,71.30
2017-09-13T05:28:18.631Z,70.90
2017-09-13T05:31:29.342Z,70.50
2017-09-13T05:34:40.054Z,70.40
2017-09-13T05:37:53.806Z,69.70
2017-09-13T05:41:04.397Z,69.40
2017-09-13T05:44:14.659Z,69.60
2017-09-13T05:47:24.863Z,69.40
2017-09-13T05:50:35.081Z,69.10
2017-09-13T05:53:46.138Z,68.90
2017-09-13T05:56:57.137Z,68.80
2017-09-13T06:00:07.201Z,67.80
2017-09-13T06:03:17.264Z,67.50
2017-09-13T06:06:27.817Z,66.10
2017-09-13T06:09:38.184Z,67.00
2017-09-13T06:12:48.210Z,66.70
2017-09-13T06:15:59.080Z,66.60
2017-09-13T06:19:09.172Z,65.90
2017-09-13T06:22:19.205Z,66.40
2017-09-13T06:25:29.243Z,65.60
2017-09-13T06:28:39.697Z,65.60
2017-09-13T06:31:50.400Z,65.50
2017-09-13T06:35:01.341Z,64.20
2017-09-13T06:38:11.559Z,64.20
2017-09-13T06:41:21.713Z,64.50
2017-09-13T06:44:31.768Z,64.70
2017-09-13T06:47:41.871Z,64.70
2017-09-13T06:50:52.376Z,64.70
2017-09-13T06:54:02.278Z,64.50
2017-09-13T06:57:13.570Z,65.10
2017-09-13T07:00:23.586Z,65.10
2017-09-13T07:03:33.894Z,64.80
2017-09-13T08:23:25.195Z,66.40
2017-09-13T08:26:35.461Z,66.40
2017-09-13T08:29:46.095Z,66.80
2017-09-13T08:32:56.472Z,66.60
2017-09-13T08:36:07.369Z,67.10
2017-09-13T08:39:18.094Z,67.70
2017-09-13T08:42:28.710Z,66.80
2017-09-13T08:45:40.365Z,66.50
2017-09-13T08:48:51.312Z,66.40
2017-09-13T08:52:01.691Z,65.60
2017-09-13T08:55:12.405Z,66.10
2017-09-13T08:58:22.847Z,66.60
2017-09-13T09:01:32.964Z,66.30
2017-09-13T09:04:43.173Z,66.00
2017-09-13T09:07:54.823Z,65.70
2017-09-13T09:11:05.431Z,65.70
2017-09-13T09:14:15.846Z,66.60
2017-09-13T09:17:27.543Z,66.40
2017-09-13T09:20:37.791Z,66.60
2017-09-13T09:23:47.830Z,66.30
2017-09-13T09:26:58.751Z,66.90
2017-09-13T09:30:09.380Z,66.90
2017-09-13T09:33:19.423Z,66.90
2017-09-13T09:36:29.368Z,66.40
2017-09-13T09:39:39.654Z,66.90
2017-09-13T09:42:49.609Z,67.20
2017-09-13T09:45:59.626Z,67.40
2017-09-13T09:49:10.107Z,66.80
2017-09-13T09:52:20.977Z,66.80
2017-09-13T09:55:30.982Z,66.80
2017-09-13T09:58:41.302Z,66.80
2017-09-13T10:01:51.255Z,66.20
2017-09-13T10:05:01.338Z,66.60
2017-09-13T10:08:12.981Z,65.60
2017-09-13T10:11:23.573Z,65.50
2017-09-13T10:14:33.893Z,65.00
2017-09-13T10:17:44.237Z,65.40
2017-09-13T10:20:54.938Z,65.50
2017-09-13T10:24:05.822Z,66.10
2017-09-13T10:27:16.734Z,66.70
2017-09-13T10:30:27.013Z,66.00
2017-09-13T10:33:37.155Z,66.30
2017-09-13T10:36:47.690Z,66.80
2017-09-13T10:39:57.649Z,66.20
2017-09-13T10:43:07.619Z,66.00
2017-09-13T10:46:18.065Z,65.70
2017-09-13T10:49:28.163Z,64.90
2017-09-13T10:52:38.809Z,65.20
2017-09-13T10:55:49.688Z,64.40
2017-09-13T10:59:00.013Z,64.30
2017-09-13T11:02:10.077Z,63.40
2017-09-13T11:05:20.093Z,63.90
2017-09-13T11:08:30.195Z,64.30
2017-09-13T11:11:40.336Z,64.80
2017-09-13T11:14:50.501Z,64.60
2017-09-13T11:18:01.556Z,65.70
2017-09-13T11:21:12.515Z,65.50
2017-09-13T11:24:23.421Z,66.20
2017-09-13T11:27:33.699Z,66.60
2017-09-13T11:30:44.850Z,66.50
2017-09-13T11:33:55.190Z,66.40
2017-09-13T11:37:05.825Z,67.30
2017-09-13T11:40:15.748Z,66.70
2017-09-13T11:43:26.526Z,66.50
2017-09-13T11:46:36.743Z,67.00
2017-09-13T11:49:47.251Z,67.40
2017-09-13T11:52:57.534Z,66.50
2017-09-13T11:56:07.946Z,66.50
2017-09-13T11:59:18.035Z,66.60
2017-09-13T12:02:28.181Z,67.10
2017-09-13T12:05:38.791Z,66.50
2017-09-13T12:08:48.803Z,66.60
2017-09-13T12:11:58.634Z,66.90
2017-09-13T12:15:08.783Z,66.00
2017-09-13T12:18:18.714Z,66.80
2017-09-13T12:21:29.139Z,65.40
2017-09-13T12:24:39.072Z,66.80
2017-09-13T12:27:49.912Z,66.70
2017-09-13T12:31:00.242Z,67.20
2017-09-13T12:34:11.143Z,67.20
2017-09-13T12:37:21.547Z,67.90
2017-09-13T12:40:32.157Z,67.70
2017-09-13T12:43:42.858Z,68.60
2017-09-13T12:46:53.245Z,68.10
2017-09-13T12:50:03.759Z,69.10
2017-09-13T12:53:13.975Z,68.90
2017-09-13T12:56:25.254Z,69.30
2017-09-13T12:59:35.861Z,69.10
2017-09-13T13:02:47.467Z,70.30
2017-09-13T13:05:58.502Z,71.40
2017-09-13T13:09:09.410Z,71.30
2017-09-13T13:12:19.770Z,74.50
2017-09-13T13:15:30.257Z,75.00
2017-09-13T13:18:40.260Z,75.80
2017-09-13T13:21:51.822Z,75.00
2017-09-13T13:25:01.725Z,75.30
2017-09-13T13:28:11.973Z,75.10
2017-09-13T13:31:22.498Z,75.10
2017-09-13T13:34:32.875Z,74.90
2017-09-13T13:37:43.492Z,75.50
2017-09-13T13:40:53.942Z,76.50
2017-09-13T13:44:05.419Z,76.30
2017-09-13T13:47:16.038Z,76.20
2017-09-13T13:50:26.225Z,76.50
2017-09-13T13:53:36.151Z,75.80
2017-09-13T13:56:46.486Z,75.00
2017-09-13T13:59:56.994Z,75.20
2017-09-13T14:03:07.090Z,75.40
2017-09-13T14:06:17.974Z,75.00
2017-09-13T14:09:27.977Z,75.10
2017-09-13T14:12:38.498Z,74.70
2017-09-13T14:15:48.453Z,74.10
2017-09-13T14:18:58.468Z,74.80
2017-09-13T14:22:09.164Z,74.20
2017-09-13T14:25:23.885Z,73.20
2017-09-13T14:28:34.058Z,73.30
2017-09-13T14:31:44.178Z,73.90
2017-09-13T14:34:55.122Z,74.60
2017-09-13T14:38:05.365Z,75.60
2017-09-13T14:41:16.122Z,78.00
2017-09-13T14:44:26.432Z,81.00
2017-09-13T14:47:37.161Z,79.10
2017-09-13T14:50:48.136Z,79.00
2017-09-13T14:53:58.091Z,78.00
2017-09-13T14:57:08.829Z,74.60
2017-09-13T15:00:19.587Z,69.50
2017-09-13T15:03:30.176Z,67.20
2017-09-13T15:06:40.839Z,66.00
2017-09-13T15:09:52.182Z,68.30
2017-09-13T15:13:02.686Z,68.10
2017-09-13T15:16:13.102Z,66.20
2017-09-13T15:19:23.016Z,67.30
2017-09-13T15:22:33.817Z,66.10
2017-09-13T15:25:44.617Z,66.80
2017-09-13T15:28:54.885Z,65.90
2017-09-13T15:32:05.020Z,65.80
2017-09-13T15:35:17.172Z,65.30
2017-09-13T15:38:27.514Z,63.70
2017-09-13T15:41:49.395Z,64.30
2017-09-13T15:45:00.113Z,64.60
2017-09-13T15:48:11.175Z,64.50
2017-09-13T15:51:21.303Z,64.40
2017-09-13T15:54:31.983Z,63.90
2017-09-13T15:57:42.372Z,63.80
2017-09-13T16:00:52.636Z,64.20
2017-09-13T16:04:02.852Z,64.00
2017-09-13T16:07:12.763Z,64.10
2017-09-13T16:10:23.321Z,64.70
2017-09-13T16:13:33.596Z,64.40
2017-09-13T16:16:44.106Z,63.60
2017-09-13T16:19:54.288Z,64.10
2017-09-13T16:23:05.280Z,64.20
2017-09-13T16:26:16.428Z,64.00
2017-09-13T16:29:26.876Z,64.00
2017-09-13T16:32:37.908Z,65.00
2017-09-13T16:35:48.657Z,65.00
2017-09-13T16:38:58.769Z,64.30
2017-09-13T16:42:09.196Z,64.20
2017-09-13T16:45:19.825Z,64.30
2017-09-13T16:48:30.452Z,64.70
2017-09-13T16:51:41.130Z,64.70
2017-09-13T16:54:51.809Z,65.40
2017-09-13T16:58:02.265Z,65.50
2017-09-13T17:01:13.077Z,65.50
2017-09-13T17:04:33.573Z,65.30
2017-09-13T17:07:47.446Z,65.30
2017-09-13T17:10:57.755Z,66.10
2017-09-13T17:14:08.783Z,66.00
2017-09-13T17:17:18.993Z,66.00
2017-09-13T17:20:29.777Z,66.50
2017-09-13T17:23:40.086Z,66.50
2017-09-13T17:26:50.035Z,66.90
2017-09-13T17:30:00.459Z,66.90
2017-09-13T17:33:10.945Z,66.50
2017-09-13T17:36:21.472Z,66.70
2017-09-13T17:39:36.033Z,67.00
2017-09-13T17:42:47.803Z,67.00
2017-09-13T17:45:57.647Z,66.90
2017-09-13T17:49:07.548Z,66.80
2017-09-13T17:52:17.950Z,67.70
2017-09-13T17:55:28.024Z,68.50
2017-09-13T17:58:38.308Z,69.40
2017-09-13T18:01:48.548Z,70.40
2017-09-13T18:04:58.502Z,70.80
2017-09-13T18:08:08.472Z,70.90
2017-09-13T18:11:19.749Z,71.20
2017-09-13T18:14:29.898Z,71.20
2017-09-13T18:17:40.266Z,71.10
2017-09-13T18:20:50.791Z,70.90
2017-09-13T18:24:01.255Z,72.30
2017-09-13T18:27:12.624Z,73.80
2017-09-13T18:30:22.886Z,75.10
2017-09-13T18:33:37.374Z,76.20
2017-09-13T18:36:48.205Z,77.00
2017-09-13T18:39:58.931Z,76.30
2017-09-13T18:43:08.926Z,76.90
2017-09-13T18:46:18.982Z,76.20
2017-09-13T18:49:29.057Z,75.80
2017-09-13T18:52:39.868Z,75.60
2017-09-13T18:55:51.346Z,75.30
2017-09-13T18:59:02.455Z,74.70
2017-09-13T19:02:12.871Z,74.70
2017-09-13T19:05:23.013Z,74.20
2017-09-13T19:08:33.521Z,74.30
2017-09-13T19:11:43.531Z,74.50
2017-09-13T19:14:53.671Z,74.30
2017-09-13T19:18:04.002Z,73.80
2017-09-13T19:21:14.021Z,73.80
2017-09-13T19:24:24.536Z,74.10
2017-09-13T19:27:34.756Z,74.60
2017-09-13T19:30:45.428Z,75.70
2017-09-13T19:33:55.729Z,77.00
2017-09-13T19:37:06.269Z,78.20
2017-09-13T19:40:16.836Z,78.50
2017-09-13T19:43:26.942Z,79.40
2017-09-13T19:46:37.182Z,79.80
2017-09-13T19:49:47.358Z,79.60
2017-09-13T19:52:57.589Z,79.80
2017-09-13T19:56:08.608Z,80.00
2017-09-13T19:59:26.969Z,80.30
2017-09-13T20:02:37.451Z,79.30
2017-09-13T20:05:48.160Z,80.80
2017-09-13T20:08:58.355Z,80.80
2017-09-13T20:12:08.754Z,80.50
2017-09-13T20:15:19.568Z,81.20
2017-09-13T20:18:29.966Z,81.90
2017-09-13T20:21:40.019Z,80.90
2017-09-13T20:24:50.501Z,81.50
2017-09-13T20:28:02.310Z,82.40
2017-09-13T20:31:12.675Z,81.30
2017-09-13T20:34:23.483Z,80.90
2017-09-13T20:37:34.190Z,79.80
2017-09-13T20:40:45.431Z,79.20
2017-09-13T20:43:55.878Z,79.00
2017-09-13T20:47:05.710Z,78.80
2017-09-13T20:50:16.084Z,79.10
2017-09-13T20:53:27.475Z,79.90
2017-09-13T20:56:39.239Z,79.80
2017-09-13T20:59:49.579Z,80.70
2017-09-13T21:02:59.589Z,80.60
2017-09-13T21:06:11.186Z,80.60
2017-09-13T21:09:22.033Z,80.60
2017-09-13T21:12:32.123Z,80.80
2017-09-13T21:15:42.616Z,79.50
2017-09-13T21:18:53.703Z,78.50
2017-09-13T21:22:04.221Z,78.50
2017-09-13T21:25:15.325Z,78.30
2017-09-13T21:28:25.391Z,79.00
2017-09-13T21:31:35.664Z,79.30
2017-09-13T21:34:45.828Z,78.90
2017-09-13T21:37:55.856Z,79.60
2017-09-13T21:41:06.700Z,80.70
2017-09-13T21:44:16.892Z,79.20
2017-09-13T21:47:27.128Z,79.80
2017-09-13T21:50:37.542Z,81.60
2017-09-13T21:53:49.262Z,83.30
2017-09-13T21:56:59.515Z,83.20
2017-09-13T22:00:09.407Z,84.70
2017-09-13T22:03:20.002Z,84.50
2017-09-13T22:06:30.418Z,84.60
2017-09-13T22:09:40.633Z,84.00
2017-09-13T22:12:50.948Z,84.10
2017-09-13T22:16:01.641Z,83.70
2017-09-13T22:19:11.890Z,84.30
2017-09-13T22:22:22.220Z,84.60
2017-09-13T22:25:32.461Z,84.90
2017-09-13T22:28:43.260Z,85.20
2017-09-13T22:31:53.722Z,84.50
2017-09-13T22:35:04.618Z,84.80
2017-09-13T22:38:14.782Z,85.50
2017-09-13T22:41:24.820Z,85.60
2017-09-13T22:44:34.777Z,85.10
2017-09-13T22:47:45.620Z,84.90
2017-09-13T22:50:55.693Z,84.90
2017-09-13T22:54:05.761Z,85.10
2017-09-13T22:57:15.792Z,85.90
2017-09-13T23:00:25.625Z,86.00
2017-09-13T23:03:35.665Z,87.60
2017-09-13T23:06:46.149Z,86.60
2017-09-13T23:09:56.286Z,86.20
2017-09-13T23:13:06.463Z,86.40
2017-09-13T23:16:16.771Z,86.90
2017-09-13T23:19:26.834Z,86.80
2017-09-13T23:22:36.961Z,87.20
2017-09-13T23:25:47.184Z,87.50
2017-09-13T23:28:57.279Z,87.90
2017-09-13T23:32:08.090Z,88.50
2017-09-13T23:35:18.236Z,88.90
2017-09-13T23:38:29.039Z,88.60
2017-09-13T23:41:39.382Z,88.50
2017-09-13T23:44:49.219Z,88.30
2017-09-13T23:47:59.588Z,89.20
2017-09-13T23:51:09.665Z,89.20
2017-09-13T23:54:20.141Z,88.80
2017-09-13T23:57:30.178Z,88.80
